createdAt,value
2017-07-04T00:01:06.326Z,14.50
2017-07-04T00:03:34.617Z,14.60
2017-07-04T00:06:02.168Z,14.50
2017-07-04T00:08:29.696Z,14.60
2017-07-04T00:10:57.253Z,14.50
2017-07-04T00:13:24.777Z,14.40
2017-07-04T00:15:52.327Z,14.40
2017-07-04T00:18:19.856Z,14.40
2017-07-04T00:20:47.399Z,14.40
2017-07-04T00:23:14.927Z,14.40
2017-07-04T00:25:42.484Z,14.40
2017-07-04T00:28:10.017Z,14.40
2017-07-04T00:30:37.547Z,14.40
2017-07-04T00:33:05.094Z,14.30
2017-07-04T00:35:33.386Z,14.10
2017-07-04T00:38:00.929Z,14.20
2017-07-04T00:40:29.221Z,14.20
2017-07-04T00:42:56.767Z,14.20
2017-07-04T00:45:24.291Z,14.20
2017-07-04T00:47:51.843Z,14.10
2017-07-04T00:50:19.371Z,13.90
2017-07-04T00:52:46.939Z,13.90
2017-07-04T00:55:14.463Z,13.80
2017-07-04T00:57:42.757Z,13.90
2017-07-04T01:00:10.299Z,13.90
2017-07-04T01:02:37.821Z,13.90
2017-07-04T01:05:05.369Z,14.00
2017-07-04T01:07:32.891Z,14.00
2017-07-04T01:10:00.434Z,14.10
2017-07-04T01:12:27.963Z,14.10
2017-07-04T01:14:56.301Z,14.20
2017-07-04T01:17:23.832Z,14.10
2017-07-04T01:19:51.355Z,14.20
2017-07-04T01:22:18.894Z,14.10
2017-07-04T01:24:46.427Z,14.00
2017-07-04T01:27:13.972Z,13.90
2017-07-04T01:29:41.559Z,13.90
2017-07-04T01:32:09.107Z,13.80
2017-07-04T01:34:36.632Z,13.80
2017-07-04T01:37:04.944Z,13.90
2017-07-04T01:39:32.473Z,13.90
2017-07-04T01:42:00.788Z,13.90
2017-07-04T01:44:28.321Z,13.90
2017-07-04T01:46:55.869Z,13.90
2017-07-04T01:49:24.163Z,13.90
2017-07-04T01:51:51.728Z,13.90
2017-07-04T01:54:20.052Z,13.80
2017-07-04T01:56:47.583Z,13.80
2017-07-04T01:59:15.898Z,13.70
2017-07-04T02:01:43.423Z,13.70
2017-07-04T02:04:11.738Z,13.60
2017-07-04T02:06:39.266Z,13.50
2017-07-04T02:09:07.582Z,13.50
2017-07-04T02:11:35.109Z,13.50
2017-07-04T02:14:02.655Z,13.50
2017-07-04T02:16:30.186Z,13.50
2017-07-04T02:18:57.732Z,13.40
2017-07-04T02:21:25.280Z,13.50
2017-07-04T02:23:52.834Z,13.50
2017-07-04T02:26:20.364Z,13.40
2017-07-04T02:28:48.657Z,13.40
2017-07-04T02:31:16.208Z,13.30
2017-07-04T02:33:43.726Z,13.30
2017-07-04T02:36:12.045Z,13.20
2017-07-04T02:38:40.339Z,13.20
2017-07-04T02:41:07.888Z,13.10
2017-07-04T02:43:35.411Z,13.10
2017-07-04T02:46:02.965Z,13.00
2017-07-04T02:48:30.490Z,13.00
2017-07-04T02:50:58.035Z,13.00
2017-07-04T02:53:25.565Z,12.90
2017-07-04T02:55:53.123Z,12.90
2017-07-04T02:58:21.415Z,12.80
2017-07-04T03:00:48.945Z,12.80
2017-07-04T03:03:17.260Z,12.70
2017-07-04T03:05:44.788Z,12.60
2017-07-04T03:08:12.330Z,12.60
2017-07-04T03:10:39.855Z,12.60
2017-07-04T03:13:07.399Z,12.60
2017-07-04T03:15:34.928Z,12.70
2017-07-04T03:18:02.480Z,12.70
2017-07-04T03:20:30.010Z,12.80
2017-07-04T03:22:58.319Z,12.70
2017-07-04T03:25:25.850Z,12.70
2017-07-04T03:27:53.400Z,12.60
2017-07-04T03:30:20.928Z,12.60
2017-07-04T03:32:48.484Z,12.50
2017-07-04T03:35:16.006Z,12.40
2017-07-04T03:37:43.531Z,12.40
2017-07-04T03:40:11.843Z,12.30
2017-07-04T03:42:39.375Z,12.30
2017-07-04T03:45:06.923Z,12.40
2017-07-04T03:47:34.452Z,12.50
2017-07-04T03:50:02.005Z,12.60
2017-07-04T03:52:30.295Z,12.70
2017-07-04T03:54:57.845Z,12.60
2017-07-04T03:57:25.376Z,12.60
2017-07-04T03:59:52.931Z,12.60
2017-07-04T04:02:20.464Z,12.70
2017-07-04T04:04:48.023Z,12.70
2017-07-04T04:07:15.543Z,12.80
2017-07-04T04:09:43.068Z,12.90
2017-07-04T04:12:10.615Z,13.00
2017-07-04T04:14:38.157Z,13.10
2017-07-04T04:17:06.467Z,13.20
2017-07-04T04:19:33.997Z,13.20
2017-07-04T04:22:01.546Z,13.40
2017-07-04T04:24:29.072Z,13.70
2017-07-04T04:26:56.621Z,13.90
2017-07-04T04:29:24.148Z,14.20
2017-07-04T04:31:52.468Z,14.90
2017-07-04T04:34:20.757Z,15.00
2017-07-04T04:36:49.158Z,15.10
2017-07-04T04:39:16.747Z,15.10
2017-07-04T04:41:44.274Z,15.30
2017-07-04T04:44:11.823Z,15.60
2017-07-04T04:46:39.348Z,16.00
2017-07-04T04:49:06.888Z,16.40
2017-07-04T04:51:34.413Z,16.80
2017-07-04T04:54:01.961Z,17.20
2017-07-04T04:56:29.480Z,17.40
2017-07-04T04:58:57.026Z,17.50
2017-07-04T05:01:24.551Z,17.60
2017-07-04T05:03:52.884Z,17.40
2017-07-04T05:06:20.406Z,17.40
2017-07-04T05:08:47.931Z,17.40
2017-07-04T05:11:15.475Z,17.80
2017-07-04T05:13:43.765Z,18.80
2017-07-04T05:16:11.312Z,18.70
2017-07-04T05:18:39.612Z,19.90
2017-07-04T05:21:07.164Z,19.90
2017-07-04T05:23:34.691Z,20.50
2017-07-04T05:26:03.007Z,21.40
2017-07-04T05:28:30.532Z,21.40
2017-07-04T05:30:58.881Z,21.90
2017-07-04T05:33:26.422Z,21.90
2017-07-04T05:35:53.962Z,22.10
2017-07-04T05:38:21.514Z,22.50
2017-07-04T05:40:49.816Z,23.20
2017-07-04T05:43:17.368Z,23.20
2017-07-04T05:45:44.921Z,22.90
2017-07-04T05:48:12.476Z,22.00
2017-07-04T05:50:39.999Z,21.00
2017-07-04T05:53:07.545Z,20.90
2017-07-04T05:55:35.072Z,20.80
2017-07-04T05:58:02.620Z,21.00
2017-07-04T06:00:30.155Z,21.60
2017-07-04T06:02:58.036Z,22.50
2017-07-04T06:05:26.332Z,24.20
2017-07-04T06:07:53.863Z,24.10
2017-07-04T06:10:21.410Z,24.70
2017-07-04T06:12:48.938Z,25.30
2017-07-04T06:15:16.484Z,25.70
2017-07-04T06:17:44.015Z,26.00
2017-07-04T06:20:11.568Z,26.30
2017-07-04T06:22:39.096Z,26.60
2017-07-04T06:25:06.643Z,27.20
2017-07-04T06:27:34.174Z,27.70
2017-07-04T06:30:01.726Z,28.00
2017-07-04T06:32:29.256Z,28.30
2017-07-04T06:34:56.811Z,28.60
2017-07-04T06:37:24.335Z,28.50
2017-07-04T06:39:51.901Z,28.40
2017-07-04T06:42:19.427Z,28.60
2017-07-04T06:44:47.729Z,28.10
2017-07-04T06:47:15.276Z,28.10
2017-07-04T06:49:42.804Z,28.00
2017-07-04T06:52:10.355Z,28.40
2017-07-04T06:54:38.656Z,28.90
2017-07-04T06:57:06.203Z,28.90
2017-07-04T06:59:33.734Z,29.20
2017-07-04T07:02:01.289Z,28.80
2017-07-04T07:04:28.822Z,28.90
2017-07-04T07:06:57.145Z,29.30
2017-07-04T07:09:24.677Z,29.30
2017-07-04T07:11:52.228Z,29.30
2017-07-04T07:14:19.759Z,29.00
2017-07-04T07:16:47.306Z,28.90
2017-07-04T07:19:14.824Z,29.00
2017-07-04T07:21:42.380Z,28.90
2017-07-04T07:24:09.903Z,28.70
2017-07-04T07:26:37.434Z,28.70
2017-07-04T07:29:04.988Z,29.00
2017-07-04T07:31:33.274Z,29.40
2017-07-04T07:34:00.827Z,29.40
2017-07-04T07:36:28.352Z,29.20
2017-07-04T07:38:55.899Z,29.10
2017-07-04T07:41:23.427Z,29.00
2017-07-04T07:43:50.971Z,28.90
2017-07-04T07:46:19.268Z,29.00
2017-07-04T07:48:46.816Z,29.00
2017-07-04T07:51:14.347Z,29.10
2017-07-04T07:53:41.913Z,29.10
2017-07-04T07:56:09.445Z,28.70
2017-07-04T07:58:36.975Z,28.60
2017-07-04T08:01:04.519Z,28.60
2017-07-04T08:03:32.047Z,28.90
2017-07-04T08:06:00.363Z,28.20
2017-07-04T08:08:27.896Z,28.10
2017-07-04T08:10:56.215Z,28.10
2017-07-04T08:13:23.744Z,28.10
2017-07-04T08:15:51.293Z,28.50
2017-07-04T08:18:18.820Z,29.00
2017-07-04T08:20:46.368Z,29.10
2017-07-04T08:23:13.890Z,29.30
2017-07-04T08:25:42.211Z,28.20
2017-07-04T08:28:09.734Z,28.20
2017-07-04T08:30:37.260Z,28.40
2017-07-04T08:33:04.805Z,28.50
2017-07-04T08:35:33.099Z,28.50
2017-07-04T08:38:01.407Z,28.70
2017-07-04T08:40:28.939Z,28.70
2017-07-04T08:42:57.247Z,28.60
2017-07-04T08:45:24.776Z,28.60
2017-07-04T08:47:53.094Z,29.00
2017-07-04T08:50:20.618Z,29.00
2017-07-04T08:52:48.170Z,28.40
2017-07-04T08:55:15.706Z,27.50
2017-07-04T08:57:43.273Z,27.40
2017-07-04T09:00:10.809Z,28.10
2017-07-04T09:02:38.340Z,28.00
2017-07-04T09:05:05.893Z,27.30
2017-07-04T09:07:33.416Z,26.60
2017-07-04T09:10:01.728Z,26.30
2017-07-04T09:12:29.263Z,26.30
2017-07-04T09:14:56.803Z,26.80
2017-07-04T09:17:24.332Z,27.30
2017-07-04T09:19:51.886Z,28.00
2017-07-04T09:22:19.415Z,28.30
2017-07-04T09:24:46.964Z,28.80
2017-07-04T09:27:14.492Z,29.10
2017-07-04T09:29:42.035Z,29.60
2017-07-04T09:32:09.575Z,29.80
2017-07-04T09:34:37.127Z,29.50
2017-07-04T09:37:04.674Z,28.70
2017-07-04T09:39:32.200Z,27.60
2017-07-04T09:41:59.747Z,27.00
2017-07-04T09:44:28.055Z,27.90
2017-07-04T09:46:55.615Z,27.90
2017-07-04T09:49:23.145Z,28.30
2017-07-04T09:51:50.690Z,28.40
2017-07-04T09:54:18.214Z,28.10
2017-07-04T09:56:46.527Z,27.90
2017-07-04T09:59:14.057Z,27.90
2017-07-04T10:01:41.615Z,28.20
2017-07-04T10:04:09.908Z,28.80
2017-07-04T10:06:37.450Z,28.70
2017-07-04T10:09:04.995Z,29.30
2017-07-04T10:11:32.532Z,29.60
2017-07-04T10:14:00.079Z,29.90
2017-07-04T10:16:27.607Z,30.10
2017-07-04T10:18:55.154Z,30.50
2017-07-04T10:21:22.687Z,30.30
2017-07-04T10:23:50.236Z,30.50
2017-07-04T10:26:17.763Z,29.70
2017-07-04T10:28:45.318Z,29.70
2017-07-04T10:31:12.847Z,28.90
2017-07-04T10:33:41.136Z,28.00
2017-07-04T10:36:08.680Z,28.00
2017-07-04T10:38:36.212Z,28.40
2017-07-04T10:41:04.523Z,29.50
2017-07-04T10:43:32.054Z,29.50
2017-07-04T10:45:59.604Z,29.70
2017-07-04T10:48:27.138Z,29.40
2017-07-04T10:50:54.682Z,28.90
2017-07-04T10:53:22.215Z,28.90
2017-07-04T10:55:49.770Z,29.20
2017-07-04T10:58:18.064Z,29.80
2017-07-04T11:00:45.597Z,29.80
2017-07-04T11:03:13.922Z,30.50
2017-07-04T11:05:42.206Z,30.30
2017-07-04T11:08:10.511Z,29.60
2017-07-04T11:10:38.031Z,29.50
2017-07-04T11:13:05.575Z,29.00
2017-07-04T11:15:33.100Z,28.40
2017-07-04T11:18:00.647Z,28.30
2017-07-04T11:20:28.938Z,29.40
2017-07-04T11:22:56.482Z,29.40
2017-07-04T11:25:24.017Z,30.20
2017-07-04T11:27:51.567Z,30.30
2017-07-04T11:30:19.103Z,30.40
2017-07-04T11:32:47.402Z,31.10
2017-07-04T11:35:14.951Z,31.10
2017-07-04T11:37:42.479Z,30.90
2017-07-04T11:40:10.030Z,30.40
2017-07-04T11:42:37.569Z,30.70
2017-07-04T11:45:05.885Z,30.40
2017-07-04T11:47:33.407Z,30.40
2017-07-04T11:50:01.720Z,29.40
2017-07-04T11:52:29.250Z,29.30
2017-07-04T11:54:56.796Z,29.00
2017-07-04T11:57:25.094Z,29.20
2017-07-04T11:59:52.643Z,29.30
2017-07-04T12:02:20.181Z,29.10
2017-07-04T12:04:47.743Z,28.90
2017-07-04T12:07:15.272Z,28.50
2017-07-04T12:09:42.794Z,28.00
2017-07-04T12:12:10.349Z,27.90
2017-07-04T12:14:37.875Z,28.40
2017-07-04T12:17:05.424Z,29.00
2017-07-04T12:19:32.951Z,29.80
2017-07-04T12:22:00.500Z,30.40
2017-07-04T12:24:28.796Z,30.70
2017-07-04T12:26:56.343Z,30.70
2017-07-04T12:29:23.868Z,30.20
2017-07-04T12:31:52.177Z,29.10
2017-07-04T12:34:19.707Z,29.10
2017-07-04T12:36:47.252Z,28.70
2017-07-04T12:39:15.547Z,27.50
2017-07-04T12:41:43.103Z,27.50
2017-07-04T12:44:10.636Z,26.80
2017-07-04T12:46:38.161Z,26.60
2017-07-04T12:49:05.709Z,26.50
2017-07-04T12:51:33.235Z,27.00
2017-07-04T12:54:00.780Z,27.90
2017-07-04T12:56:28.306Z,28.40
2017-07-04T12:58:55.854Z,28.40
2017-07-04T13:01:24.143Z,28.70
2017-07-04T13:03:51.692Z,28.60
2017-07-04T13:06:19.226Z,28.50
2017-07-04T13:08:46.775Z,28.20
2017-07-04T13:11:14.312Z,27.60
2017-07-04T13:13:41.869Z,27.40
2017-07-04T13:16:09.394Z,27.90
2017-07-04T13:18:36.930Z,28.20
2017-07-04T13:21:04.475Z,28.30
2017-07-04T13:23:32.004Z,28.00
2017-07-04T13:25:59.555Z,27.40
2017-07-04T13:28:27.088Z,26.80
2017-07-04T13:30:55.407Z,26.40
2017-07-04T13:33:22.928Z,26.40
2017-07-04T13:35:50.475Z,26.70
2017-07-04T13:38:18.005Z,27.20
2017-07-04T13:40:45.562Z,27.80
2017-07-04T13:43:13.096Z,28.00
2017-07-04T13:45:41.414Z,27.60
2017-07-04T13:48:08.943Z,27.50
2017-07-04T13:50:36.477Z,27.40
2017-07-04T13:53:04.791Z,28.00
2017-07-04T13:55:33.143Z,27.70
2017-07-04T13:58:00.779Z,27.70
2017-07-04T14:00:28.311Z,27.70
2017-07-04T14:02:56.788Z,28.20
2017-07-04T14:05:25.123Z,28.30
2017-07-04T14:07:52.680Z,28.30
2017-07-04T14:10:20.210Z,28.30
2017-07-04T14:12:47.755Z,28.40
2017-07-04T14:15:15.281Z,28.40
2017-07-04T14:17:42.824Z,28.20
2017-07-04T14:20:10.351Z,28.40
2017-07-04T14:22:37.906Z,28.20
2017-07-04T14:25:05.438Z,27.40
2017-07-04T14:27:33.760Z,26.70
2017-07-04T14:30:01.287Z,26.70
2017-07-04T14:32:29.582Z,27.00
2017-07-04T14:34:57.131Z,27.00
2017-07-04T14:37:25.426Z,27.30
2017-07-04T14:39:52.967Z,27.30
2017-07-04T14:42:21.261Z,27.90
2017-07-04T14:44:48.813Z,27.90
2017-07-04T14:47:16.352Z,28.10
2017-07-04T14:49:43.903Z,28.30
2017-07-04T14:52:11.435Z,28.40
2017-07-04T14:54:38.985Z,28.50
2017-07-04T14:57:06.512Z,28.50
2017-07-04T14:59:34.859Z,28.20
2017-07-04T15:02:02.387Z,28.10
2017-07-04T15:04:30.680Z,28.00
2017-07-04T15:06:58.229Z,28.00
2017-07-04T15:09:25.762Z,28.00
2017-07-04T15:11:53.378Z,28.00
2017-07-04T15:14:20.907Z,28.00
2017-07-04T15:16:48.455Z,28.00
2017-07-04T15:19:15.979Z,28.20
2017-07-04T15:21:43.533Z,28.40
2017-07-04T15:24:11.826Z,28.20
2017-07-04T15:26:39.390Z,28.10
2017-07-04T15:29:06.923Z,28.00
2017-07-04T15:31:34.487Z,28.00
2017-07-04T15:34:02.780Z,27.70
2017-07-04T15:36:31.075Z,27.60
2017-07-04T15:38:58.618Z,27.60
2017-07-04T15:41:26.155Z,27.60
2017-07-04T15:43:53.704Z,27.50
2017-07-04T15:46:21.232Z,27.50
2017-07-04T15:48:48.799Z,27.30
2017-07-04T15:51:16.337Z,27.30
2017-07-04T15:53:44.661Z,27.30
2017-07-04T15:56:12.199Z,27.30
2017-07-04T15:58:39.744Z,27.20
2017-07-04T16:01:07.269Z,27.10
2017-07-04T16:03:34.824Z,27.00
2017-07-04T16:06:02.351Z,27.00
2017-07-04T16:08:29.884Z,26.90
2017-07-04T16:10:57.439Z,26.90
2017-07-04T16:13:24.975Z,26.80
2017-07-04T16:15:52.530Z,26.80
2017-07-04T16:18:20.056Z,26.60
2017-07-04T16:20:47.621Z,26.60
2017-07-04T16:23:15.182Z,26.60
2017-07-04T16:25:42.727Z,26.60
2017-07-04T16:28:10.267Z,26.50
2017-07-04T16:30:37.827Z,26.50
2017-07-04T16:33:05.356Z,26.60
2017-07-04T16:35:32.892Z,26.60
2017-07-04T16:38:01.215Z,26.50
2017-07-04T16:40:28.740Z,26.50
2017-07-04T16:42:57.057Z,26.40
2017-07-04T16:45:24.593Z,26.40
2017-07-04T16:47:52.141Z,26.20
2017-07-04T16:50:19.676Z,26.20
2017-07-04T16:52:47.224Z,26.00
2017-07-04T16:55:14.752Z,25.90
2017-07-04T16:57:42.300Z,25.80
2017-07-04T17:00:09.829Z,25.90
2017-07-04T17:02:37.403Z,25.80
2017-07-04T17:05:05.704Z,25.80
2017-07-04T17:07:33.243Z,25.80
2017-07-04T17:10:00.794Z,25.80
2017-07-04T17:12:28.320Z,25.80
2017-07-04T17:14:55.873Z,25.80
2017-07-04T17:17:23.396Z,25.70
2017-07-04T17:19:50.944Z,25.70
2017-07-04T17:22:18.472Z,25.60
2017-07-04T17:24:46.016Z,25.60
2017-07-04T17:27:13.539Z,25.60
2017-07-04T17:29:41.095Z,25.50
2017-07-04T17:32:08.624Z,25.40
2017-07-04T17:34:37.000Z,25.30
2017-07-04T17:37:04.533Z,25.30
2017-07-04T17:39:32.068Z,25.20
2017-07-04T17:41:59.617Z,25.20
2017-07-04T17:44:27.148Z,25.20
2017-07-04T17:46:55.463Z,25.10
2017-07-04T17:49:23.001Z,25.10
2017-07-04T17:51:50.551Z,25.00
2017-07-04T17:54:18.072Z,24.90
2017-07-04T17:56:46.395Z,24.90
2017-07-04T17:59:13.924Z,24.80
2017-07-04T18:01:41.475Z,24.80
2017-07-04T18:04:09.004Z,24.70
2017-07-04T18:06:36.557Z,24.70
2017-07-04T18:09:04.104Z,24.70
2017-07-04T18:11:31.668Z,24.60
2017-07-04T18:13:59.209Z,24.60
2017-07-04T18:16:27.507Z,24.50
2017-07-04T18:18:55.061Z,24.50
2017-07-04T18:21:23.364Z,24.30
2017-07-04T18:23:50.912Z,24.30
2017-07-04T18:26:18.443Z,24.30
2017-07-04T18:28:46.004Z,24.20
2017-07-04T18:31:13.540Z,24.20
2017-07-04T18:33:41.091Z,24.00
2017-07-04T18:36:08.619Z,23.90
2017-07-04T18:38:36.183Z,23.70
2017-07-04T18:41:03.714Z,23.50
2017-07-04T18:43:31.240Z,23.30
2017-07-04T18:45:58.797Z,23.20
2017-07-04T18:48:27.093Z,22.80
2017-07-04T18:50:54.644Z,22.80
2017-07-04T18:53:22.173Z,22.70
2017-07-04T18:55:49.727Z,22.60
2017-07-04T18:58:17.261Z,22.50
2017-07-04T19:00:45.584Z,22.20
2017-07-04T19:03:13.113Z,22.20
2017-07-04T19:05:40.664Z,22.10
2017-07-04T19:08:08.215Z,21.90
2017-07-04T19:10:35.745Z,21.70
2017-07-04T19:13:03.291Z,21.50
2017-07-04T19:15:30.821Z,21.30
2017-07-04T19:17:58.373Z,21.20
2017-07-04T19:20:25.902Z,21.00
2017-07-04T19:22:53.463Z,20.90
2017-07-04T19:25:21.752Z,20.70
2017-07-04T19:27:49.296Z,20.70
2017-07-04T19:30:16.821Z,20.60
2017-07-04T19:32:44.383Z,20.50
2017-07-04T19:35:11.917Z,20.30
2017-07-04T19:37:39.444Z,20.10
2017-07-04T19:40:06.993Z,19.90
2017-07-04T19:42:34.516Z,19.80
2017-07-04T19:45:02.058Z,19.70
2017-07-04T19:47:30.355Z,19.70
2017-07-04T19:49:57.895Z,19.60
2017-07-04T19:52:25.430Z,19.60
2017-07-04T19:54:53.001Z,19.50
2017-07-04T19:57:21.291Z,19.20
2017-07-04T19:59:48.852Z,19.20
2017-07-04T20:02:16.383Z,19.10
2017-07-04T20:04:44.717Z,19.00
2017-07-04T20:07:12.240Z,19.00
2017-07-04T20:09:39.775Z,19.00
2017-07-04T20:12:08.216Z,18.90
2017-07-04T20:14:35.747Z,18.70
2017-07-04T20:17:03.291Z,18.50
2017-07-04T20:19:30.816Z,18.40
2017-07-04T20:21:58.359Z,18.20
2017-07-04T20:24:26.652Z,18.10
2017-07-04T20:26:54.204Z,18.00
2017-07-04T20:29:21.727Z,18.00
2017-07-04T20:31:49.279Z,18.00
2017-07-04T20:34:16.800Z,17.80
2017-07-04T20:36:44.355Z,17.70
2017-07-04T20:39:11.880Z,17.70
2017-07-04T20:41:39.407Z,17.80
2017-07-04T20:44:06.951Z,17.80
2017-07-04T20:46:34.475Z,17.80
2017-07-04T20:49:02.027Z,17.80
2017-07-04T20:51:29.557Z,17.80
2017-07-04T20:53:57.108Z,17.90
2017-07-04T20:56:24.641Z,17.80
2017-07-04T20:58:52.196Z,17.80
2017-07-04T21:01:19.729Z,17.80
2017-07-04T21:03:47.281Z,17.70
2017-07-04T21:06:14.811Z,17.60
2017-07-04T21:08:43.139Z,17.30
2017-07-04T21:11:10.662Z,17.30
2017-07-04T21:13:38.187Z,17.10
2017-07-04T21:16:05.736Z,17.00
2017-07-04T21:18:33.263Z,16.80
2017-07-04T21:21:00.810Z,16.70
2017-07-04T21:23:29.104Z,16.60
2017-07-04T21:25:56.648Z,16.60
2017-07-04T21:28:24.945Z,16.60
2017-07-04T21:30:52.491Z,16.60
2017-07-04T21:33:20.019Z,16.60
2017-07-04T21:35:47.568Z,16.50
2017-07-04T21:38:15.097Z,16.50
2017-07-04T21:40:42.714Z,16.40
2017-07-04T21:43:10.211Z,16.40
2017-07-04T21:45:37.736Z,16.30
2017-07-04T21:48:05.288Z,16.30
2017-07-04T21:50:33.580Z,16.30
2017-07-04T21:53:01.123Z,16.30
2017-07-04T21:55:28.648Z,16.30
2017-07-04T21:57:56.959Z,16.30
2017-07-04T22:00:24.484Z,16.30
2017-07-04T22:02:52.797Z,16.30
2017-07-04T22:05:20.319Z,16.30
2017-07-04T22:07:47.877Z,16.20
2017-07-04T22:10:15.408Z,16.10
2017-07-04T22:12:42.936Z,15.90
2017-07-04T22:15:11.255Z,15.70
2017-07-04T22:17:38.787Z,15.70
2017-07-04T22:20:07.100Z,15.70
2017-07-04T22:22:34.628Z,15.70
2017-07-04T22:25:02.178Z,15.80
2017-07-04T22:27:30.472Z,15.80
2017-07-04T22:29:58.013Z,15.80
2017-07-04T22:32:25.535Z,15.80
2017-07-04T22:34:53.860Z,15.40
2017-07-04T22:37:21.386Z,15.40
2017-07-04T22:39:48.915Z,15.40
2017-07-04T22:42:16.471Z,15.40
2017-07-04T22:44:44.000Z,15.40
2017-07-04T22:47:11.548Z,15.40
2017-07-04T22:49:39.079Z,15.50
2017-07-04T22:52:06.945Z,15.50
2017-07-04T22:54:34.472Z,15.50
2017-07-04T22:57:02.015Z,15.50
2017-07-04T22:59:29.542Z,15.50
2017-07-04T23:01:57.088Z,15.40
2017-07-04T23:04:24.617Z,15.20
2017-07-04T23:06:52.171Z,15.10
2017-07-04T23:09:19.707Z,15.00
2017-07-04T23:11:47.232Z,15.00
2017-07-04T23:14:15.543Z,15.00
2017-07-04T23:16:43.076Z,14.90
2017-07-04T23:19:10.627Z,15.00
2017-07-04T23:21:38.919Z,14.90
2017-07-04T23:24:06.465Z,14.90
2017-07-04T23:26:34.756Z,14.70
2017-07-04T23:29:02.298Z,14.70
2017-07-04T23:31:29.828Z,14.60
2017-07-04T23:33:57.393Z,14.60
2017-07-04T23:36:24.923Z,14.60
2017-07-04T23:38:52.456Z,14.50
2017-07-04T23:41:19.999Z,14.50
2017-07-04T23:43:47.527Z,14.40
2017-07-04T23:46:15.840Z,14.30
2017-07-04T23:48:43.362Z,14.30
2017-07-04T23:51:10.907Z,14.40
2017-07-04T23:53:38.432Z,14.40
2017-07-04T23:56:06.743Z,14.50
2017-07-04T23:58:34.268Z,14.40
